Aviation Digital Data Service (ADDS)

Output produced by METARs form (0619 UTC 19 February 2019)
found at http://www.aviationweather.gov/metar/data/
 
Forecast for: ORBI (BAGHDAD INTL , IQ)
Text: TAF ORBI 190400Z 1906/2006 30006KT 8000 NSC
Forecast period: 0600 UTC 19 February 2019 to 0600 UTC 20 February 2019
Forecast type: FROM: standard forecast or significant change
Winds: from the WNW (300 degrees) at 7 MPH (6 knots; 3.1 m/s)
Visibility: 5 miles (8 km)
Ceiling: unknown
Clouds: missing
Weather: no significant weather forecast for this period